Hlavní strana
METAR-TAF:

METAR-TAF

Letiště :

Colmar, Francie

zeměpisná šířka: 48-06-37N, zeměpisná délka: 7-21-33E, výška: 191 m

Aktuální stav počasí

Zpráva byla vytvořena před 4 hodinami a 7 minutami, v 22:00 UTC
Jižní vítr 6 kt
Teplota 20°C
Vlhkost vzduchu 94%
Tlak 1013 hPa
Viditelnost 10 km a více
Žádná oblačnost pod 1500 m, nevyskytují se cumulonimby.

METAR: LFGA 152200Z AUTO 18006KT CAVOK 20/19 Q1013

Čas: 04:07 (02:07 UTC)


TAF: chybějící

Stav a předpovědi počasí z více než 4 000 letišť (zprávy METAR a TAF).

Červené a žluté tečky na mapě představují dostupné meteorologické stanice.

Když kurzor umístíte na tečku, zobrazí se název stanice.

Pak kliknutím zobrazíte stav a předpověď počasí.

Chcete-li změnit mapu, kliknutím na zelené tlačítko se znaménkem +mapu přiblížíte, kliknutím na zelené tlačítko se znaménkem – mapu oddálíte a kliknutím na zelené šipky přejdete na sousední mapy.


METAR-TAF: